Time;durP1;ratioP1;P1;durP2;ratioP2;P2;SDS_P1;SDS_P2;PMS_P1;PMS_P2;Temp;Humidity;BMP_temperature;BMP_pressure;BME280_temperature;BME280_humidity;BME280_pressure;Samples;Min_cycle;Max_cycle;Signal;HPM_P1;HPM_P2
2022/10/31 00:04:28;;;;;;;8.32;3.72;;;;;;;;;;12849650;23;20064;-76
2022/10/31 00:09:28;;;;;;;11.87;3.67;;;;;;;;;;12850095;23;20059;-73
2022/10/31 00:14:29;;;;;;;8.65;3.55;;;;;;;;;;12871519;23;19989;-74
2022/10/31 00:19:29;;;;;;;5.80;3.60;;;;;;;;;;12849484;23;20067;-74
2022/10/31 00:24:29;;;;;;;8.75;4.25;;;;;;;;;;12849826;23;20021;-78
2022/10/31 00:29:29;;;;;;;5.68;3.42;;;;;;;;;;12848069;23;20108;-76
2022/10/31 00:34:30;;;;;;;7.22;3.38;;;;;;;;;;12849176;23;19997;-76
2022/10/31 00:39:32;;;;;;;5.38;3.60;;;;;;;;;;12871401;23;20020;-80
2022/10/31 00:44:32;;;;;;;7.22;3.70;;;;;;;;;;12848735;23;20116;-79
2022/10/31 00:49:32;;;;;;;6.75;3.15;;;;;;;;;;12871422;23;20056;-75
2022/10/31 00:54:34;;;;;;;7.57;4.43;;;;;;;;;;12851157;23;20049;-79
2022/10/31 00:59:34;;;;;;;10.43;4.00;;;;;;;;;;12849220;23;20446;-73
2022/10/31 01:04:34;;;;;;;7.80;4.18;;;;;;;;;;12848784;23;19992;-75
2022/10/31 01:09:35;;;;;;;9.52;3.95;;;;;;;;;;12870583;23;20396;-74
2022/10/31 01:14:35;;;;;;;7.47;3.85;;;;;;;;;;12848928;23;20414;-74
2022/10/31 01:19:35;;;;;;;7.05;3.17;;;;;;;;;;12870881;23;20063;-75
2022/10/31 01:24:37;;;;;;;6.82;3.72;;;;;;;;;;12871213;23;20016;-80
2022/10/31 01:29:37;;;;;;;11.05;3.47;;;;;;;;;;12848459;23;20075;-77
2022/10/31 01:34:38;;;;;;;7.15;3.95;;;;;;;;;;12848388;23;19989;-82
2022/10/31 01:39:38;;;;;;;7.90;4.70;;;;;;;;;;12850501;23;19992;-75
2022/10/31 01:44:38;;;;;;;8.38;4.00;;;;;;;;;;12875185;23;19988;-75
2022/10/31 01:49:45;;;;;;;11.75;4.65;;;;;;;;;;12852336;23;20001;-74
2022/10/31 01:54:48;;;;;;;10.68;4.50;;;;;;;;;;12852622;23;20453;-74
2022/10/31 01:59:50;;;;;;;11.50;5.30;;;;;;;;;;12852190;23;20000;-81
2022/10/31 02:04:51;;;;;;;9.43;5.13;;;;;;;;;;12852536;23;20297;-72
2022/10/31 02:09:53;;;;;;;9.98;4.65;;;;;;;;;;12855421;23;20003;-74
2022/10/31 02:14:53;;;;;;;7.53;4.70;;;;;;;;;;12855224;23;20000;-73
2022/10/31 02:20:20;;;;;;;14.90;4.28;;;;;;;;;;12861047;23;19993;-80
2022/10/31 02:25:33;;;;;;;8.63;4.88;;;;;;;;;;12847852;23;20437;-74
2022/10/31 02:31:01;;;;;;;7.68;3.63;;;;;;;;;;12853067;23;20017;-83
2022/10/31 02:36:10;;;;;;;7.70;4.10;;;;;;;;;;12875012;23;20000;-77
2022/10/31 02:41:29;;;;;;;7.90;3.78;;;;;;;;;;12868153;23;20115;-73
2022/10/31 02:46:49;;;;;;;12.57;5.35;;;;;;;;;;12852595;23;20051;-75
2022/10/31 02:51:49;;;;;;;9.35;4.05;;;;;;;;;;12873962;23;19984;-73
2022/10/31 02:56:51;;;;;;;7.28;3.67;;;;;;;;;;12851047;23;20000;-76
2022/10/31 03:01:54;;;;;;;13.32;3.80;;;;;;;;;;12874088;23;20340;-75
2022/10/31 03:07:02;;;;;;;10.02;4.15;;;;;;;;;;12851033;23;20028;-74
2022/10/31 03:12:03;;;;;;;12.85;4.30;;;;;;;;;;12873752;23;19985;-75
2022/10/31 03:17:05;;;;;;;11.18;4.43;;;;;;;;;;12851461;23;19997;-75
2022/10/31 03:22:21;;;;;;;15.48;4.07;;;;;;;;;;12850754;23;20455;-75
2022/10/31 03:27:23;;;;;;;8.07;4.30;;;;;;;;;;12825600;23;20012;-75
2022/10/31 03:32:33;;;;;;;9.48;4.20;;;;;;;;;;12850699;23;19988;-78
2022/10/31 03:37:35;;;;;;;10.32;4.72;;;;;;;;;;12850620;23;20000;-74
2022/10/31 03:42:38;;;;;;;17.95;5.00;;;;;;;;;;12850001;23;20050;-75
2022/10/31 03:47:38;;;;;;;20.23;6.80;;;;;;;;;;12850056;23;20474;-74
2022/10/31 03:52:46;;;;;;;10.27;4.35;;;;;;;;;;12850347;23;20020;-80
2022/10/31 03:57:52;;;;;;;9.55;4.38;;;;;;;;;;12849563;23;20054;-73
2022/10/31 04:02:53;;;;;;;12.38;5.05;;;;;;;;;;12824148;23;20515;-77
2022/10/31 04:07:54;;;;;;;8.60;4.82;;;;;;;;;;12849488;23;20036;-73
2022/10/31 04:12:58;;;;;;;7.45;4.97;;;;;;;;;;12850444;23;19988;-74
2022/10/31 04:17:59;;;;;;;12.85;5.18;;;;;;;;;;12850728;23;20004;-73
2022/10/31 04:23:00;;;;;;;16.10;5.97;;;;;;;;;;12824572;23;20000;-78
2022/10/31 04:28:00;;;;;;;11.00;5.68;;;;;;;;;;12849230;23;20070;-73
2022/10/31 04:33:00;;;;;;;10.70;5.65;;;;;;;;;;12872680;23;20456;-76
2022/10/31 04:38:02;;;;;;;14.30;6.68;;;;;;;;;;12872279;23;19996;-78
2022/10/31 04:43:03;;;;;;;16.95;5.93;;;;;;;;;;12849741;23;19993;-79
2022/10/31 04:48:03;;;;;;;14.88;6.35;;;;;;;;;;12830363;23;20040;-75
2022/10/31 04:53:03;;;;;;;18.80;6.80;;;;;;;;;;12825027;23;20127;-73
2022/10/31 04:58:04;;;;;;;13.93;6.45;;;;;;;;;;12827570;23;20291;-76
2022/10/31 05:03:04;;;;;;;21.90;7.68;;;;;;;;;;12875623;23;20392;-76
2022/10/31 05:08:04;;;;;;;19.65;7.15;;;;;;;;;;12889207;23;20409;-72
2022/10/31 05:13:04;;;;;;;15.67;7.10;;;;;;;;;;12873337;23;19989;-75
2022/10/31 05:18:05;;;;;;;16.73;7.93;;;;;;;;;;12871864;23;20079;-77
2022/10/31 05:23:06;;;;;;;18.08;7.72;;;;;;;;;;12872057;23;20001;-77
2022/10/31 05:28:06;;;;;;;15.55;7.70;;;;;;;;;;12823438;23;20004;-75
2022/10/31 05:33:06;;;;;;;12.93;8.07;;;;;;;;;;12823333;23;20071;-80
2022/10/31 05:38:07;;;;;;;18.60;8.73;;;;;;;;;;12823875;23;20003;-80
2022/10/31 05:43:07;;;;;;;21.85;9.73;;;;;;;;;;12822602;23;19993;-81
2022/10/31 05:48:07;;;;;;;19.02;9.15;;;;;;;;;;12822535;23;20017;-81
2022/10/31 05:53:08;;;;;;;17.37;5.63;;;;;;;;;;12822196;23;20050;-74
2022/10/31 05:58:08;;;;;;;13.48;6.22;;;;;;;;;;12822688;23;20303;-76
2022/10/31 06:03:09;;;;;;;11.48;5.75;;;;;;;;;;12825645;23;19993;-78
2022/10/31 06:08:09;;;;;;;12.32;5.57;;;;;;;;;;12822688;23;20430;-80
2022/10/31 06:13:09;;;;;;;11.68;5.40;;;;;;;;;;12823089;23;19993;-78
2022/10/31 06:18:09;;;;;;;13.75;6.97;;;;;;;;;;12870699;23;20032;-74
2022/10/31 06:23:10;;;;;;;22.23;8.38;;;;;;;;;;12822962;23;19993;-74
2022/10/31 06:28:10;;;;;;;20.27;7.10;;;;;;;;;;12825431;23;20080;-75
2022/10/31 06:33:10;;;;;;;24.02;7.15;;;;;;;;;;12825467;23;20031;-78
2022/10/31 06:38:10;;;;;;;20.50;8.02;;;;;;;;;;12825977;23;20475;-82
2022/10/31 06:43:14;;;;;;;17.58;9.32;;;;;;;;;;12825496;23;20055;-80
2022/10/31 06:48:14;;;;;;;20.40;10.20;;;;;;;;;;12824853;23;20013;-75
2022/10/31 06:53:14;;;;;;;27.40;10.18;;;;;;;;;;12800426;23;20333;-75
2022/10/31 06:58:15;;;;;;;23.73;11.63;;;;;;;;;;12827361;23;19993;-79
2022/10/31 07:03:15;;;;;;;25.33;9.68;;;;;;;;;;12825775;23;20702;-78
2022/10/31 07:08:15;;;;;;;30.85;11.00;;;;;;;;;;12825850;23;20008;-74
2022/10/31 07:13:16;;;;;;;17.95;10.07;;;;;;;;;;12873431;23;19992;-75
2022/10/31 07:18:16;;;;;;;30.05;10.15;;;;;;;;;;12873482;23;20131;-73
2022/10/31 07:23:16;;;;;;;23.55;11.00;;;;;;;;;;12825674;23;20449;-75
2022/10/31 07:28:16;;;;;;;31.02;12.10;;;;;;;;;;12825803;23;19996;-77
2022/10/31 07:33:17;;;;;;;27.55;12.80;;;;;;;;;;12825737;23;20023;-77
2022/10/31 07:38:17;;;;;;;25.00;12.75;;;;;;;;;;12874102;23;19995;-76
2022/10/31 07:43:17;;;;;;;32.07;12.83;;;;;;;;;;12825408;23;20429;-74
2022/10/31 07:48:18;;;;;;;27.45;12.65;;;;;;;;;;12800622;23;20347;-78
2022/10/31 07:53:18;;;;;;;30.47;12.40;;;;;;;;;;12751666;23;20004;-75
2022/10/31 07:58:18;;;;;;;32.95;12.57;;;;;;;;;;12766870;23;20235;-73
2022/10/31 08:03:19;;;;;;;21.80;12.30;;;;;;;;;;12769141;23;19993;-72
2022/10/31 08:08:20;;;;;;;33.60;14.65;;;;;;;;;;12780298;23;20435;-82
2022/10/31 08:13:20;;;;;;;32.35;13.50;;;;;;;;;;12761952;23;20000;-74
2022/10/31 08:18:23;;;;;;;24.17;12.38;;;;;;;;;;12809035;23;20072;-79
2022/10/31 08:23:25;;;;;;;25.88;12.35;;;;;;;;;;12807744;23;19999;-79
2022/10/31 08:28:25;;;;;;;27.23;12.85;;;;;;;;;;12753459;23;20058;-75
2022/10/31 08:33:25;;;;;;;24.27;13.18;;;;;;;;;;12736290;23;20388;-78
2022/10/31 08:38:26;;;;;;;25.15;10.63;;;;;;;;;;12807520;23;19993;-73
2022/10/31 08:43:27;;;;;;;23.80;11.50;;;;;;;;;;12761335;23;20013;-77
2022/10/31 08:48:29;;;;;;;22.02;11.13;;;;;;;;;;12811600;23;20013;-77
2022/10/31 08:53:30;;;;;;;25.17;12.85;;;;;;;;;;12821586;23;19999;-77
2022/10/31 08:58:31;;;;;;;22.10;11.60;;;;;;;;;;12822796;23;20035;-75
2022/10/31 09:03:31;;;;;;;22.08;11.13;;;;;;;;;;12869141;23;20448;-74
2022/10/31 09:08:32;;;;;;;23.38;10.60;;;;;;;;;;12821908;23;20452;-81
2022/10/31 09:13:32;;;;;;;20.17;9.52;;;;;;;;;;12823025;23;20019;-73
2022/10/31 09:18:33;;;;;;;17.40;8.80;;;;;;;;;;12822174;23;19996;-81
2022/10/31 09:23:33;;;;;;;20.50;9.43;;;;;;;;;;12822580;23;20001;-72
2022/10/31 09:28:33;;;;;;;20.55;8.98;;;;;;;;;;12870652;23;20000;-74
2022/10/31 09:33:34;;;;;;;15.60;7.63;;;;;;;;;;12821203;23;19997;-74
2022/10/31 09:38:34;;;;;;;19.05;6.43;;;;;;;;;;12870122;23;19989;-82
2022/10/31 09:43:34;;;;;;;17.77;6.43;;;;;;;;;;12821314;23;20096;-78
2022/10/31 09:48:41;;;;;;;22.60;7.07;;;;;;;;;;12820865;23;20036;-76
2022/10/31 09:53:55;;;;;;;11.55;4.90;;;;;;;;;;12821398;23;19993;-75
2022/10/31 09:58:58;;;;;;;14.82;5.72;;;;;;;;;;12822045;23;19988;-76
2022/10/31 10:04:19;;;;;;;14.57;4.18;;;;;;;;;;12825225;23;20444;-74
2022/10/31 10:09:21;;;;;;;10.65;4.38;;;;;;;;;;12825457;23;20500;-83
2022/10/31 10:14:30;;;;;;;15.50;4.78;;;;;;;;;;12825136;23;19989;-73
2022/10/31 10:19:30;;;;;;;12.00;5.20;;;;;;;;;;12845699;23;20313;-75
2022/10/31 10:24:36;;;;;;;11.77;3.92;;;;;;;;;;12825460;23;20000;-78
2022/10/31 10:29:47;;;;;;;11.35;3.42;;;;;;;;;;12874346;23;20012;-83
2022/10/31 10:34:50;;;;;;;14.85;2.67;;;;;;;;;;12825408;23;19988;-74
2022/10/31 10:39:53;;;;;;;9.68;2.67;;;;;;;;;;12824658;23;20069;-74
2022/10/31 10:50:12;;;;;;;5.40;2.53;;;;;;;;;;12810387;23;20029;-73
2022/10/31 10:55:18;;;;;;;8.15;2.45;;;;;;;;;;12763073;23;20433;-75
2022/10/31 11:00:20;;;;;;;7.40;2.22;;;;;;;;;;12762695;23;20435;-73
2022/10/31 11:05:26;;;;;;;4.82;1.90;;;;;;;;;;12773145;23;20000;-78
2022/10/31 11:10:26;;;;;;;10.07;2.70;;;;;;;;;;12760987;23;20083;-75
2022/10/31 11:15:27;;;;;;;8.57;2.40;;;;;;;;;;12761229;23;20440;-80
2022/10/31 11:20:35;;;;;;;25.63;2.70;;;;;;;;;;12761098;23;20023;-74
2022/10/31 11:25:36;;;;;;;6.32;1.73;;;;;;;;;;12761723;23;20007;-75
2022/10/31 11:30:47;;;;;;;9.43;1.83;;;;;;;;;;12737257;23;20387;-76
2022/10/31 11:35:47;;;;;;;5.53;1.67;;;;;;;;;;12808671;23;19986;-74
2022/10/31 11:40:59;;;;;;;9.52;2.55;;;;;;;;;;12761177;23;20058;-75
2022/10/31 11:46:07;;;;;;;12.90;2.90;;;;;;;;;;12765934;23;20021;-75
2022/10/31 11:51:08;;;;;;;9.93;2.40;;;;;;;;;;12738966;23;19989;-72
2022/10/31 11:56:16;;;;;;;7.57;3.38;;;;;;;;;;12764883;23;19997;-74
2022/10/31 12:01:24;;;;;;;9.05;2.58;;;;;;;;;;12761737;23;19997;-74
2022/10/31 12:06:33;;;;;;;7.68;2.67;;;;;;;;;;12769729;23;20008;-80
2022/10/31 12:11:40;;;;;;;11.95;2.92;;;;;;;;;;12813451;23;20007;-73
2022/10/31 12:16:59;;;;;;;14.85;3.47;;;;;;;;;;12761592;23;20016;-77
2022/10/31 12:22:19;;;;;;;12.65;2.67;;;;;;;;;;12762260;23;19993;-79
2022/10/31 12:27:28;;;;;;;9.57;3.00;;;;;;;;;;12760010;23;20397;-73
2022/10/31 12:32:35;;;;;;;19.17;4.00;;;;;;;;;;12760662;23;19993;-76
2022/10/31 12:37:50;;;;;;;12.88;3.25;;;;;;;;;;12808295;23;20438;-74
2022/10/31 12:42:50;;;;;;;5.90;2.92;;;;;;;;;;12760962;23;19997;-78
2022/10/31 12:48:03;;;;;;;9.82;3.08;;;;;;;;;;12804275;23;20016;-75
2022/10/31 12:53:16;;;;;;;10.48;3.10;;;;;;;;;;12822483;23;20011;-73
2022/10/31 12:58:25;;;;;;;6.32;2.78;;;;;;;;;;12822092;23;19996;-80
2022/10/31 13:03:33;;;;;;;5.75;2.70;;;;;;;;;;12856974;23;19992;-78
2022/10/31 13:08:33;;;;;;;9.05;3.40;;;;;;;;;;12823754;23;20338;-74
2022/10/31 13:13:37;;;;;;;15.02;3.38;;;;;;;;;;12821980;23;20016;-77
2022/10/31 13:18:40;;;;;;;8.05;3.13;;;;;;;;;;12871462;23;19996;-73
2022/10/31 13:23:41;;;;;;;12.15;3.17;;;;;;;;;;12869800;23;20452;-73
2022/10/31 13:28:56;;;;;;;15.05;3.22;;;;;;;;;;12822773;23;20004;-76
2022/10/31 13:33:58;;;;;;;19.45;7.30;;;;;;;;;;12823286;23;20352;-72
2022/10/31 13:39:01;;;;;;;12.23;3.90;;;;;;;;;;12827370;23;20031;-75
2022/10/31 13:44:11;;;;;;;11.52;4.00;;;;;;;;;;12854805;23;20026;-74
2022/10/31 13:49:30;;;;;;;8.32;3.38;;;;;;;;;;12824668;23;20082;-74
2022/10/31 13:54:34;;;;;;;9.85;2.92;;;;;;;;;;12824257;23;20079;-75
2022/10/31 13:59:36;;;;;;;10.32;3.05;;;;;;;;;;12875701;23;20014;-82
2022/10/31 14:04:38;;;;;;;12.82;3.13;;;;;;;;;;12828035;23;19992;-74
2022/10/31 14:09:41;;;;;;;9.48;3.90;;;;;;;;;;12825337;23;20627;-74
2022/10/31 14:14:46;;;;;;;9.65;3.50;;;;;;;;;;12824707;23;19996;-75
2022/10/31 14:20:00;;;;;;;14.43;3.80;;;;;;;;;;12825384;23;19999;-76
2022/10/31 14:25:01;;;;;;;17.50;3.28;;;;;;;;;;12870273;23;20438;-74
2022/10/31 14:30:14;;;;;;;13.98;3.42;;;;;;;;;;12823803;23;20100;-77
2022/10/31 14:35:15;;;;;;;7.63;2.53;;;;;;;;;;12799775;23;20043;-74
2022/10/31 14:40:19;;;;;;;9.15;3.60;;;;;;;;;;12824329;23;20079;-74
2022/10/31 14:45:27;;;;;;;14.85;3.63;;;;;;;;;;12810746;23;20048;-75
2022/10/31 14:50:45;;;;;;;9.55;3.45;;;;;;;;;;12762274;23;20335;-80
2022/10/31 14:55:51;;;;;;;14.00;4.70;;;;;;;;;;12759346;23;20408;-74
2022/10/31 15:00:56;;;;;;;16.40;4.93;;;;;;;;;;12736474;23;20008;-80
2022/10/31 15:05:59;;;;;;;22.08;6.50;;;;;;;;;;12761646;23;20024;-78
2022/10/31 15:11:02;;;;;;;21.80;5.72;;;;;;;;;;12760782;23;20429;-74
2022/10/31 15:16:10;;;;;;;12.13;4.85;;;;;;;;;;12760657;23;20005;-78
2022/10/31 15:21:11;;;;;;;14.85;3.50;;;;;;;;;;12808520;23;20001;-77
2022/10/31 15:26:15;;;;;;;11.63;2.73;;;;;;;;;;12806860;23;20020;-72
2022/10/31 15:31:18;;;;;;;14.55;3.10;;;;;;;;;;12760988;23;20425;-79
2022/10/31 15:36:20;;;;;;;8.70;2.78;;;;;;;;;;12760740;23;20004;-74
2022/10/31 15:41:21;;;;;;;11.23;3.28;;;;;;;;;;12806484;23;19993;-73
2022/10/31 15:46:21;;;;;;;20.55;3.50;;;;;;;;;;12759860;23;20024;-76
2022/10/31 15:51:26;;;;;;;18.25;3.45;;;;;;;;;;12805922;23;20000;-76
2022/10/31 15:56:30;;;;;;;17.75;4.57;;;;;;;;;;12803870;23;20123;-81
2022/10/31 16:01:32;;;;;;;18.83;4.70;;;;;;;;;;12760243;23;20394;-75
2022/10/31 16:06:33;;;;;;;33.03;5.90;;;;;;;;;;12761185;23;20005;-78
2022/10/31 16:11:35;;;;;;;28.13;6.60;;;;;;;;;;12760774;23;19993;-74
2022/10/31 16:16:49;;;;;;;34.85;9.20;;;;;;;;;;12762705;23;20438;-73
2022/10/31 16:22:03;;;;;;;32.78;7.45;;;;;;;;;;12765329;23;20000;-74
2022/10/31 16:27:05;;;;;;;24.58;8.40;;;;;;;;;;12760314;23;20013;-74
2022/10/31 16:32:23;;;;;;;30.60;8.85;;;;;;;;;;12758960;23;19989;-74
2022/10/31 16:37:23;;;;;;;24.85;6.90;;;;;;;;;;12759199;23;20001;-78
2022/10/31 16:42:24;;;;;;;22.23;7.10;;;;;;;;;;12759569;23;20459;-75
2022/10/31 16:47:24;;;;;;;33.28;12.05;;;;;;;;;;12796553;23;20017;-74
2022/10/31 16:52:25;;;;;;;39.50;10.00;;;;;;;;;;12820923;23;19989;-78
2022/10/31 16:57:27;;;;;;;27.75;11.38;;;;;;;;;;12820111;23;20090;-74
2022/10/31 17:02:28;;;;;;;23.67;6.20;;;;;;;;;;12820326;23;19996;-74
2022/10/31 17:07:28;;;;;;;17.10;6.57;;;;;;;;;;12820712;23;20035;-74
2022/10/31 17:12:29;;;;;;;15.75;7.13;;;;;;;;;;12796164;23;20008;-74
2022/10/31 17:17:29;;;;;;;27.58;7.95;;;;;;;;;;12820362;23;19992;-75
2022/10/31 17:22:29;;;;;;;23.23;8.35;;;;;;;;;;12819547;23;20456;-73
2022/10/31 17:27:29;;;;;;;18.05;5.32;;;;;;;;;;12820908;23;19997;-74
2022/10/31 17:32:30;;;;;;;17.48;5.32;;;;;;;;;;12821010;23;20016;-74
2022/10/31 17:37:30;;;;;;;25.23;5.75;;;;;;;;;;12867439;23;20001;-74
2022/10/31 17:42:31;;;;;;;20.88;6.47;;;;;;;;;;12821649;23;20080;-74
2022/10/31 17:47:31;;;;;;;16.85;5.30;;;;;;;;;;12820637;23;20071;-74
2022/10/31 17:52:31;;;;;;;27.60;7.05;;;;;;;;;;12820279;23;20353;-74
2022/10/31 17:57:33;;;;;;;19.30;6.22;;;;;;;;;;12821550;23;20000;-74
2022/10/31 18:02:34;;;;;;;21.02;7.45;;;;;;;;;;12818936;23;20050;-74
2022/10/31 18:07:34;;;;;;;34.22;13.15;;;;;;;;;;12819585;23;20043;-76
2022/10/31 18:12:35;;;;;;;24.42;8.57;;;;;;;;;;12870223;23;20047;-75
2022/10/31 18:17:35;;;;;;;30.27;9.10;;;;;;;;;;12820313;23;19993;-78
2022/10/31 18:22:36;;;;;;;23.70;9.33;;;;;;;;;;12823078;23;20030;-72
2022/10/31 18:27:36;;;;;;;27.27;7.55;;;;;;;;;;12824077;23;20039;-72
2022/10/31 18:32:36;;;;;;;31.52;10.07;;;;;;;;;;12825116;23;19993;-75
2022/10/31 18:37:36;;;;;;;25.85;8.63;;;;;;;;;;12823324;23;20013;-73
2022/10/31 18:42:37;;;;;;;31.20;8.30;;;;;;;;;;12824700;23;19993;-76
2022/10/31 18:47:37;;;;;;;19.98;7.35;;;;;;;;;;12822963;23;20025;-75
2022/10/31 18:52:37;;;;;;;20.02;6.68;;;;;;;;;;12822959;23;19993;-77
2022/10/31 18:57:38;;;;;;;25.50;6.90;;;;;;;;;;12823732;23;20032;-75
2022/10/31 19:02:38;;;;;;;20.80;6.05;;;;;;;;;;12823043;23;19997;-74
2022/10/31 19:07:39;;;;;;;20.60;5.72;;;;;;;;;;12798284;23;20429;-73
2022/10/31 19:12:39;;;;;;;21.45;6.97;;;;;;;;;;12860212;23;19996;-75
2022/10/31 19:17:40;;;;;;;16.45;6.68;;;;;;;;;;12826573;23;20095;-74
2022/10/31 19:22:40;;;;;;;28.13;6.60;;;;;;;;;;12827183;23;20008;-79
2022/10/31 19:27:41;;;;;;;15.70;6.90;;;;;;;;;;12875195;23;20001;-73
2022/10/31 19:32:41;;;;;;;20.70;6.50;;;;;;;;;;12822826;23;20337;-74
2022/10/31 19:37:41;;;;;;;22.27;8.20;;;;;;;;;;12871266;23;20337;-75
2022/10/31 19:42:41;;;;;;;16.75;7.00;;;;;;;;;;12823116;23;20512;-74
2022/10/31 19:47:42;;;;;;;15.75;6.75;;;;;;;;;;12821653;23;20020;-74
2022/10/31 19:52:42;;;;;;;22.38;6.40;;;;;;;;;;12869850;23;20426;-74
2022/10/31 19:57:42;;;;;;;18.40;6.07;;;;;;;;;;12822657;23;20000;-74
2022/10/31 20:02:42;;;;;;;19.85;6.85;;;;;;;;;;12822327;23;20067;-77
2022/10/31 20:07:44;;;;;;;20.45;6.18;;;;;;;;;;12870541;23;20471;-75
2022/10/31 20:12:44;;;;;;;22.67;6.22;;;;;;;;;;12871148;23;20008;-74
2022/10/31 20:17:44;;;;;;;16.25;7.22;;;;;;;;;;12822667;23;20433;-77
2022/10/31 20:22:46;;;;;;;15.40;4.70;;;;;;;;;;12823230;23;19992;-75
2022/10/31 20:27:46;;;;;;;17.23;6.00;;;;;;;;;;12823467;23;20247;-73
2022/10/31 20:32:46;;;;;;;20.13;5.97;;;;;;;;;;12797795;23;20386;-71
2022/10/31 20:37:46;;;;;;;13.90;4.43;;;;;;;;;;12822587;23;19997;-75
2022/10/31 20:42:47;;;;;;;22.83;6.03;;;;;;;;;;12817698;23;20004;-77
2022/10/31 20:47:51;;;;;;;19.48;6.40;;;;;;;;;;12815454;23;20020;-83
2022/10/31 20:52:53;;;;;;;15.70;6.75;;;;;;;;;;12793601;23;20032;-80
2022/10/31 20:57:53;;;;;;;13.60;4.85;;;;;;;;;;12815794;23;20507;-79
2022/10/31 21:02:53;;;;;;;16.95;4.90;;;;;;;;;;12818627;23;20104;-80
2022/10/31 21:07:54;;;;;;;16.70;5.03;;;;;;;;;;12821948;23;20103;-81
2022/10/31 21:12:54;;;;;;;15.63;5.43;;;;;;;;;;12848165;23;20011;-79
2022/10/31 21:17:55;;;;;;;9.55;6.05;;;;;;;;;;12818971;23;20019;-80
2022/10/31 21:22:55;;;;;;;22.08;5.50;;;;;;;;;;12818540;23;20408;-79
2022/10/31 21:27:55;;;;;;;9.52;3.75;;;;;;;;;;12864177;23;20050;-78
2022/10/31 21:32:55;;;;;;;13.48;3.42;;;;;;;;;;12817109;23;20091;-79
2022/10/31 21:37:57;;;;;;;11.38;4.55;;;;;;;;;;12818480;23;20024;-77
2022/10/31 21:42:57;;;;;;;7.30;3.35;;;;;;;;;;12824903;23;20351;-80
2022/10/31 21:47:59;;;;;;;9.27;3.78;;;;;;;;;;12817478;23;20020;-77
2022/10/31 21:54:26;;;;;;;14.63;4.45;;;;;;;;;;12818450;23;20512;-79
2022/10/31 21:58:20;;;;;;;22.38;5.97;;;;;;;;;;12853421;23;19993;-75
2022/10/31 22:03:21;;;;;;;12.82;4.15;;;;;;;;;;12827103;23;20016;-78
2022/10/31 22:08:21;;;;;;;18.30;4.38;;;;;;;;;;12872717;23;20337;-79
2022/10/31 22:13:21;;;;;;;12.43;3.58;;;;;;;;;;12830192;23;20429;-77
2022/10/31 22:18:21;;;;;;;12.32;4.00;;;;;;;;;;12824250;23;19997;-78
2022/10/31 22:23:22;;;;;;;11.30;3.25;;;;;;;;;;12822445;23;20032;-73
2022/10/31 22:28:27;;;;;;;7.35;3.35;;;;;;;;;;12822919;23;19997;-75
2022/10/31 22:33:28;;;;;;;13.60;3.78;;;;;;;;;;12870687;23;20468;-78
2022/10/31 22:38:33;;;;;;;8.40;3.80;;;;;;;;;;12824006;23;20035;-77
2022/10/31 22:43:33;;;;;;;10.15;4.07;;;;;;;;;;12868374;23;20062;-74
2022/10/31 22:48:34;;;;;;;13.33;4.27;;;;;;;;;;12848894;23;20472;-76
2022/10/31 22:53:36;;;;;;;12.23;3.60;;;;;;;;;;12866858;23;19993;-77
2022/10/31 22:58:37;;;;;;;14.15;3.60;;;;;;;;;;12870801;23;19997;-82
2022/10/31 23:03:37;;;;;;;14.60;4.28;;;;;;;;;;12825811;23;19997;-73
2022/10/31 23:08:38;;;;;;;4.75;3.03;;;;;;;;;;12873855;23;19997;-78
2022/10/31 23:18:58;;;;;;;7.82;4.35;;;;;;;;;;12874430;23;20005;-81
2022/10/31 23:23:58;;;;;;;9.68;3.90;;;;;;;;;;12826044;23;20012;-75
2022/10/31 23:28:58;;;;;;;13.80;5.22;;;;;;;;;;12801452;23;20005;-76
2022/10/31 23:33:59;;;;;;;9.45;4.43;;;;;;;;;;12826083;23;20433;-75
2022/10/31 23:38:59;;;;;;;6.57;3.15;;;;;;;;;;12825570;23;20016;-78
2022/10/31 23:43:59;;;;;;;6.60;3.70;;;;;;;;;;12802590;23;20059;-79
2022/10/31 23:49:00;;;;;;;7.97;4.40;;;;;;;;;;12826220;23;20016;-74
2022/10/31 23:54:00;;;;;;;15.23;5.13;;;;;;;;;;12825955;23;20000;-73
2022/10/31 23:59:00;;;;;;;8.00;4.63;;;;;;;;;;12873165;23;20000;-74
